^^
Station Historical Data from High Park Village Toronto
 
Daily Summary for September 23, 2017 Units:  Metric    English   Both
« Previous Day
Next Day »
Daily Weekly Monthly Yearly Custom
  Current: High: Low: Average:
Temperature: 23.4 °C 40.5 °C 19.9 °C 27 °C
Dew Point: 15.7 °C 19 °C 10 °C 15 °C
Humidity: 62% 62% 28% 49%
Wind Speed: 1.9km/h 3.7km/h 0km/h 0.3km/h
Wind Gust: 1.9km/h 3.7km/h - -
WindNNW - - West
Pressure: 1018.8 hPa 1020.2 hPa 1017.5 hPa -
Precipitation: 0 mm      
Historical Graphs
 
 
Tabular Data for September 23, 2017
Time Temperature Dew Point Pressure Wind Wind Speed Wind Gust Humidity Rainfall Rate (Hourly) solar Conditions
00:01 22.3 °C 12.8 °C 1018.8 hPa Calm     55% 0 mm 0.0 W/m2
00:06 22.3 °C 12.5 °C 1018.8 hPa Calm     54% 0 mm 0.0 W/m2
00:11 22.3 °C 12.5 °C 1018.8 hPa Calm     54% 0 mm 0.0 W/m2
00:16 22.3 °C 12.8 °C 1018.8 hPa Calm     55% 0 mm 0.0 W/m2
00:21 22.3 °C 13.1 °C 1018.5 hPa Calm     56% 0 mm 0.0 W/m2
00:26 22.3 °C 13.4 °C 1018.5 hPa Calm     57% 0 mm 0.0 W/m2
00:31 22.3 °C 13.7 °C 1018.5 hPa Calm     58% 0 mm 0.0 W/m2
00:32 22.3 °C 13.7 °C 1018.5 hPa Calm     58% 0 mm 0.0 W/m2
00:37 22.3 °C 13.3 °C 1018.5 hPa Calm     57% 0 mm 0.0 W/m2
00:42 22.2 °C 13.3 °C 1018.5 hPa Calm     57% 0 mm 0.0 W/m2
00:47 22.2 °C 12.9 °C 1018.5 hPa Calm     56% 0 mm 0.0 W/m2
00:52 22.1 °C 12.1 °C 1018.5 hPa Calm     53% 0 mm 0.0 W/m2
00:57 22 °C 11.7 °C 1018.5 hPa Calm     52% 0 mm 0.0 W/m2
01:02 22 °C 11.7 °C 1018.5 hPa Calm     52% 0 mm 0.0 W/m2
01:07 21.9 °C 10.7 °C 1018.5 hPa Calm     49% 0 mm 0.0 W/m2
01:12 21.9 °C 10.1 °C 1018.5 hPa NNW 1.9 km/h   47% 0 mm 0.0 W/m2
01:17 21.8 °C 10 °C 1018.5 hPa Calm     47% 0 mm 0.0 W/m2
01:22 21.8 °C 10.3 °C 1018.5 hPa Calm     48% 0 mm 0.0 W/m2
01:27 21.8 °C 10 °C 1018.5 hPa Calm     47% 0 mm 0.0 W/m2
01:32 21.9 °C 11 °C 1018.5 hPa Calm     50% 0 mm 0.0 W/m2
01:37 21.9 °C 11.3 °C 1018.5 hPa Calm     51% 0 mm 0.0 W/m2
01:42 21.8 °C 11.2 °C 1018.5 hPa NNW 1.9 km/h 1.9 km/h 51% 0 mm 0.0 W/m2
01:47 21.6 °C 11.3 °C 1018.5 hPa Calm     52% 0 mm 0.0 W/m2
01:52 21.4 °C 11.1 °C 1018.5 hPa Calm     52% 0 mm 0.0 W/m2
01:57 21.3 °C 11.9 °C 1018.5 hPa NNW 1.9 km/h   55% 0 mm 0.0 W/m2
02:02 21.3 °C 12.2 °C 1018.5 hPa Calm     56% 0 mm 0.0 W/m2
02:07 21.3 °C 12.4 °C 1018.5 hPa Calm     57% 0 mm 0.0 W/m2
02:12 21.3 °C 12.7 °C 1018.5 hPa Calm     58% 0 mm 0.0 W/m2
02:17 21.2 °C 12.6 °C 1018.5 hPa NNW 1.9 km/h   58% 0 mm 0.0 W/m2
02:22 21.2 °C 12.6 °C 1018.2 hPa Calm     58% 0 mm 0.0 W/m2
02:27 21.1 °C 12.8 °C 1018.5 hPa Calm     59% 0 mm 0.0 W/m2
02:32 21.1 °C 12.4 °C 1018.2 hPa Calm     58% 0 mm 0.0 W/m2
02:37 21.1 °C 12.7 °C 1018.2 hPa Calm     59% 0 mm 0.0 W/m2
02:42 21.1 °C 12.7 °C 1018.2 hPa Calm     59% 0 mm 0.0 W/m2
02:47 21.1 °C 12.7 °C 1017.8 hPa Calm     59% 0 mm 0.0 W/m2
02:52 21.1 °C 12.8 °C 1017.8 hPa Calm     59% 0 mm 0.0 W/m2
02:57 21.1 °C 12.8 °C 1017.5 hPa Calm     59% 0 mm 0.0 W/m2
03:02 21.1 °C 12.8 °C 1017.5 hPa Calm     59% 0 mm 0.0 W/m2
03:07 21.2 °C 13.1 °C 1017.5 hPa Calm     60% 0 mm 0.0 W/m2
03:12 21.2 °C 13.1 °C 1017.5 hPa Calm     60% 0 mm 0.0 W/m2
03:17 21.2 °C 13.1 °C 1017.5 hPa Calm     60% 0 mm 0.0 W/m2
03:22 21.1 °C 13.1 °C 1017.5 hPa Calm     60% 0 mm 0.0 W/m2
03:27 21.1 °C 13.1 °C 1017.5 hPa Calm     60% 0 mm 0.0 W/m2
03:32 21.1 °C 13.1 °C 1017.5 hPa Calm     60% 0 mm 0.0 W/m2
03:37 21.1 °C 13.1 °C 1017.5 hPa Calm     60% 0 mm 0.0 W/m2
03:42 21.1 °C 13 °C 1017.5 hPa Calm     60% 0 mm 0.0 W/m2
03:47 21.1 °C 13 °C 1017.8 hPa Calm     60% 0 mm 0.0 W/m2
03:52 20.9 °C 12.9 °C 1017.8 hPa Calm     60% 0 mm 0.0 W/m2
03:57 20.9 °C 12.6 °C 1017.8 hPa Calm     59% 0 mm 0.0 W/m2
04:02 20.8 °C 12.4 °C 1017.8 hPa Calm     59% 0 mm 0.0 W/m2
04:07 20.7 °C 12.2 °C 1017.8 hPa Calm     58% 0 mm 0.0 W/m2
04:12 20.7 °C 12.1 °C 1017.8 hPa Calm     58% 0 mm 0.0 W/m2
04:17 20.7 °C 12.4 °C 1017.8 hPa Calm     59% 0 mm 0.0 W/m2
04:22 20.7 °C 12.6 °C 1017.8 hPa Calm     60% 0 mm 0.0 W/m2
04:27 20.7 °C 12.6 °C 1017.8 hPa Calm     60% 0 mm 0.0 W/m2
04:32 20.7 °C 12.6 °C 1017.8 hPa Calm     60% 0 mm 0.0 W/m2
04:37 20.7 °C 12.6 °C 1017.8 hPa Calm     60% 0 mm 0.0 W/m2
04:42 20.7 °C 12.6 °C 1017.8 hPa Calm     60% 0 mm 0.0 W/m2
04:47 20.7 °C 12.9 °C 1017.8 hPa Calm     61% 0 mm 0.0 W/m2
04:52 20.7 °C 12.9 °C 1018.2 hPa Calm     61% 0 mm 0.0 W/m2
04:57 20.6 °C 12.5 °C 1018.2 hPa NNW 1.9 km/h 1.9 km/h 60% 0 mm 0.0 W/m2
05:02 20.4 °C 12.6 °C 1018.2 hPa North 1.9 km/h 1.9 km/h 61% 0 mm 0.0 W/m2
05:07 20.2 °C 12.7 °C 1018.2 hPa North 1.9 km/h 1.9 km/h 62% 0 mm 0.0 W/m2
05:12 19.9 °C 11.9 °C 1018.2 hPa North 1.9 km/h   60% 0 mm 0.0 W/m2
05:17 19.9 °C 11.6 °C 1018.2 hPa Calm     59% 0 mm 0.0 W/m2
05:22 19.9 °C 11.6 °C 1018.2 hPa Calm     59% 0 mm 0.0 W/m2
05:27 19.9 °C 11.4 °C 1018.2 hPa Calm     58% 0 mm 0.0 W/m2
05:32 19.9 °C 11.4 °C 1018.2 hPa Calm     58% 0 mm 0.0 W/m2
05:37 20.1 °C 11.3 °C 1018.5 hPa Calm     57% 0 mm 0.0 W/m2
05:42 20.2 °C 11.9 °C 1018.2 hPa Calm     59% 0 mm 0.0 W/m2
05:47 20.2 °C 11.6 °C 1018.5 hPa Calm     58% 0 mm 0.0 W/m2
05:52 20.2 °C 10.8 °C 1018.5 hPa Calm     55% 0 mm 0.0 W/m2
05:57 20.2 °C 10.6 °C 1018.5 hPa Calm     54% 0 mm 0.0 W/m2
06:02 20.3 °C 11.3 °C 1018.5 hPa Calm     56% 0 mm 0.0 W/m2
06:07 20.4 °C 11.3 °C 1018.8 hPa Calm     56% 0 mm 0.0 W/m2
06:12 20.4 °C 11.4 °C 1018.8 hPa Calm     56% 0 mm 0.0 W/m2
06:17 20.4 °C 11.4 °C 1018.5 hPa North 1.9 km/h   56% 0 mm 0.0 W/m2
06:22 20.6 °C 11.4 °C 1018.8 hPa Calm     56% 0 mm 0.0 W/m2
06:27 20.6 °C 11.5 °C 1018.8 hPa NNW 1.9 km/h 1.9 km/h 56% 0 mm 0.0 W/m2
06:32 20.6 °C 11.5 °C 1018.8 hPa SW 1.9 km/h 1.9 km/h 56% 0 mm 0.0 W/m2
06:37 20.7 °C 11.6 °C 1018.8 hPa SW 1.9 km/h 1.9 km/h 56% 0 mm 0.0 W/m2
06:42 20.7 °C 11.6 °C 1019.2 hPa Calm     56% 0 mm 0.0 W/m2
06:47 20.7 °C 11.6 °C 1019.2 hPa Calm     56% 0 mm 0.0 W/m2
06:52 20.7 °C 11.6 °C 1019.2 hPa Calm     56% 0 mm 0.0 W/m2
06:57 20.7 °C 11.8 °C 1019.2 hPa Calm     57% 0 mm 0.0 W/m2
07:02 20.7 °C 11.8 °C 1019.2 hPa Calm     57% 0 mm 0.0 W/m2 CLR
07:07 20.7 °C 12.2 °C 1019.2 hPa Calm     58% 0 mm 0.0 W/m2 CLR
07:12 20.7 °C 12.1 °C 1019.2 hPa Calm     58% 0 mm 0.0 W/m2 CLR
07:17 20.7 °C 12.1 °C 1019.5 hPa Calm     58% 0 mm 0.0 W/m2 CLR
07:22 20.6 °C 12.3 °C 1019.5 hPa Calm     59% 0 mm 0.0 W/m2 CLR
07:27 20.6 °C 12.5 °C 1019.5 hPa Calm     60% 0 mm 0.0 W/m2 CLR
07:32 20.5 °C 12.4 °C 1019.5 hPa Calm     60% 0 mm 0.0 W/m2 CLR
07:37 20.5 °C 12.4 °C 1019.5 hPa Calm     60% 0 mm 7.0 W/m2 CLR
07:42 20.4 °C 12.4 °C 1019.5 hPa Calm     60% 0 mm 12.0 W/m2 CLR
07:47 20.5 °C 12.4 °C 1019.5 hPa Calm     60% 0 mm 16.0 W/m2 CLR
07:52 20.5 °C 12.4 °C 1019.9 hPa Calm     60% 0 mm 14.0 W/m2 CLR
07:57 20.5 °C 12.4 °C 1019.9 hPa Calm     60% 0 mm 16.0 W/m2 CLR
08:02 20.6 °C 12.5 °C 1019.5 hPa Calm     60% 0 mm 16.0 W/m2 CLR
08:07 20.6 °C 12.6 °C 1019.9 hPa Calm     60% 0 mm 14.0 W/m2 CLR
08:12 20.6 °C 12.8 °C 1019.9 hPa Calm     61% 0 mm 23.0 W/m2 CLR
08:17 20.7 °C 12.9 °C 1019.9 hPa Calm     61% 0 mm 35.0 W/m2 CLR
08:22 20.7 °C 12.9 °C 1019.9 hPa NW 1.9 km/h 1.9 km/h 61% 0 mm 37.0 W/m2 CLR
08:27 20.8 °C 13.1 °C 1019.9 hPa Calm     61% 0 mm 28.0 W/m2 CLR
08:32 20.9 °C 13.1 °C 1019.9 hPa Calm     61% 0 mm 25.0 W/m2 CLR
08:37 21.1 °C 13.2 °C 1020.2 hPa Calm     61% 0 mm 23.0 W/m2 CLR
08:42 21.2 °C 13.3 °C 1020.2 hPa Calm     61% 0 mm 25.0 W/m2 CLR
08:52 21.4 °C 13.6 °C 1020.2 hPa Calm     61% 0 mm 35.0 W/m2 CLR
08:57 21.6 °C 14 °C 1020.2 hPa Calm     62% 0 mm 44.0 W/m2 CLR
09:02 21.7 °C 13.9 °C 1020.2 hPa Calm     61% 0 mm 51.0 W/m2 OVC
09:07 22 °C 14.1 °C 1020.2 hPa Calm     61% 0 mm 46.0 W/m2 OVC
09:12 22.4 °C 14.5 °C 1020.2 hPa Calm     61% 0 mm 32.0 W/m2 OVC
09:17 23 °C 14.8 °C 1020.2 hPa North 1.9 km/h   60% 0 mm 35.0 W/m2 OVC
09:22 23.4 °C 14.7 °C 1020.2 hPa Calm     58% 0 mm 39.0 W/m2 OVC
09:27 23.8 °C 14.8 °C 1020.2 hPa Calm     57% 0 mm 44.0 W/m2 OVC
09:32 24.1 °C 15 °C 1020.2 hPa Calm     57% 0 mm 40.0 W/m2 OVC
09:37 24.4 °C 15.1 °C 1020.2 hPa Calm     56% 0 mm 33.0 W/m2 OVC
09:42 24.7 °C 15.3 °C 1020.2 hPa Calm     56% 0 mm 23.0 W/m2 OVC
09:47 25.1 °C 15.4 °C 1020.2 hPa Calm     55% 0 mm 33.0 W/m2 OVC
09:52 25.3 °C 15.3 °C 1020.2 hPa Calm     54% 0 mm 33.0 W/m2 OVC
09:57 25.6 °C 15.9 °C 1020.2 hPa Calm     55% 0 mm 28.0 W/m2 OVC
10:02 25.8 °C 16.1 °C 1020.2 hPa Calm     55% 0 mm 32.0 W/m2 OVC
10:07 26.1 °C 16 °C 1020.2 hPa Calm     54% 0 mm 23.0 W/m2 OVC
10:12 26.2 °C 16.1 °C 1020.2 hPa Calm     54% 0 mm 32.0 W/m2 OVC
10:17 26.3 °C 15.9 °C 1020.2 hPa Calm     53% 0 mm 33.0 W/m2 OVC
10:22 26.4 °C 16.1 °C 1020.2 hPa Calm     53% 0 mm 33.0 W/m2 OVC
10:27 26.6 °C 16.2 °C 1020.2 hPa Calm     53% 0 mm 33.0 W/m2 OVC
10:32 26.8 °C 16.4 °C 1020.2 hPa Calm     53% 0 mm 33.0 W/m2 OVC
10:37 27.1 °C 16.7 °C 1020.2 hPa Calm     53% 0 mm 33.0 W/m2 OVC
10:38 27.1 °C 16.7 °C 1020.2 hPa Calm     53% 0 mm 33.0 W/m2 OVC
10:43 27.4 °C 16.7 °C 1020.2 hPa Calm     52% 0 mm 35.0 W/m2 OVC
10:48 27.6 °C 17.2 °C 1020.2 hPa Calm     53% 0 mm 35.0 W/m2 OVC
10:53 27.8 °C 17.1 °C 1020.2 hPa Calm     52% 0 mm 35.0 W/m2 OVC
10:58 28.1 °C 17.3 °C 1020.2 hPa Calm     52% 0 mm 37.0 W/m2 OVC
11:03 28.3 °C 17.5 °C 1020.2 hPa Calm     52% 0 mm 37.0 W/m2 OVC
11:08 28.3 °C 17.2 °C 1020.2 hPa Calm     51% 0 mm 37.0 W/m2 OVC
11:13 28.2 °C 17.1 °C 1020.2 hPa North 1.9 km/h   51% 0 mm 39.0 W/m2 OVC
11:18 28.1 °C 17.3 °C 1020.2 hPa Calm     52% 0 mm 39.0 W/m2 OVC
11:23 27.9 °C 16.8 °C 1020.2 hPa Calm     51% 0 mm 40.0 W/m2 OVC
11:28 27.8 °C 17.4 °C 1020.2 hPa Calm     53% 0 mm 42.0 W/m2 OVC
11:33 28.1 °C 17.3 °C 1020.2 hPa Calm     52% 0 mm 42.0 W/m2 OVC
11:38 28.5 °C 17.7 °C 1020.2 hPa Calm     52% 0 mm 42.0 W/m2 OVC
11:43 28.9 °C 17.7 °C 1019.9 hPa Calm     51% 0 mm 44.0 W/m2 OVC
11:48 29.2 °C 18.1 °C 1019.9 hPa Calm     51% 0 mm 44.0 W/m2 OVC
11:53 29.4 °C 18.2 °C 1020.2 hPa Calm     51% 0 mm 46.0 W/m2 OVC
11:58 29.6 °C 18.4 °C 1020.2 hPa Calm     51% 0 mm 47.0 W/m2 OVC
12:03 29.8 °C 17.6 °C 1020.2 hPa NW 1.9 km/h   48% 0 mm 49.0 W/m2 OVC
12:08 29.8 °C 17.6 °C 1020.2 hPa SSW 1.9 km/h 1.9 km/h 48% 0 mm 49.0 W/m2 OVC
12:13 29.8 °C 17.6 °C 1020.2 hPa Calm     48% 0 mm 51.0 W/m2 OVC
12:18 29.9 °C 17.7 °C 1020.2 hPa SSW 1.9 km/h   48% 0 mm 51.0 W/m2 OVC
12:23 29.9 °C 17.3 °C 1020.2 hPa Calm     47% 0 mm 51.0 W/m2 OVC
12:28 29.9 °C 17.7 °C 1019.9 hPa Calm     48% 0 mm 53.0 W/m2 OVC
12:33 30 °C 17.4 °C 1020.2 hPa Calm     47% 0 mm 56.0 W/m2 OVC
12:36 30.1 °C 17.5 °C 1020.2 hPa Calm   1.6 km/h 47% 0 mm 58.0 W/m2 OVC
12:41 30.2 °C 17.9 °C 1019.9 hPa Calm     48% 0 mm 62.0 W/m2 OVC
12:46 30.4 °C 18.2 °C 1019.9 hPa Calm     48% 0 mm 67.0 W/m2 OVC
12:51 30.4 °C 18.2 °C 1019.9 hPa Calm     48% 0 mm 84.0 W/m2 OVC
12:56 30.5 °C 18.2 °C 1019.9 hPa Calm     48% 0 mm 113.0 W/m2 OVC
13:01 30.7 °C 18.4 °C 1019.9 hPa Calm     48% 0 mm 167.0 W/m2 OVC
13:06 31.1 °C 18.4 °C 1019.9 hPa SSW 1.6 km/h   47% 0 mm 162.0 W/m2 OVC
13:11 31.3 °C 17.9 °C 1019.9 hPa Calm     45% 0 mm 144.0 W/m2 OVC
13:16 31.3 °C 18 °C 1019.9 hPa SSW 1.9 km/h 1.9 km/h 45% 0 mm 153.0 W/m2 OVC
13:21 31.3 °C 17.9 °C 1019.9 hPa Calm     45% 0 mm 253.0 W/m2 OVC
13:26 31.2 °C 17.8 °C 1019.9 hPa Calm     45% 0 mm 230.0 W/m2 OVC
13:31 31.2 °C 17.2 °C 1019.9 hPa SSW 1.9 km/h 1.9 km/h 43% 0 mm 362.0 W/m2 OVC
13:36 31.2 °C 17.1 °C 1019.9 hPa SSW 1.9 km/h   43% 0 mm 584.0 W/m2 OVC
13:41 31.4 °C 17.3 °C 1019.9 hPa Calm     43% 0 mm 214.0 W/m2 OVC
13:46 31.9 °C 16.7 °C 1019.9 hPa Calm     40% 0 mm 687.0 W/m2 OVC
13:51 32.4 °C 16.7 °C 1019.5 hPa Calm     39% 0 mm 680.0 W/m2 OVC
13:56 32.5 °C 16.3 °C 1019.5 hPa Calm     38% 0 mm 656.0 W/m2 OVC
14:01 32.6 °C 16.8 °C 1019.5 hPa Calm     39% 0 mm 652.0 W/m2 OVC
14:06 32.9 °C 16.7 °C 1019.5 hPa South 1.9 km/h 1.9 km/h 38% 0 mm 652.0 W/m2 OVC
14:11 33.1 °C 16.8 °C 1019.5 hPa South 1.9 km/h 1.9 km/h 38% 0 mm 652.0 W/m2 OVC
14:16 33.2 °C 16.6 °C 1019.5 hPa Calm     37% 0 mm 645.0 W/m2 OVC
14:21 33.7 °C 16.9 °C 1019.5 hPa Calm     37% 0 mm 643.0 W/m2 OVC
14:26 34.2 °C 16.9 °C 1019.2 hPa Calm     36% 0 mm 642.0 W/m2 OVC
14:31 34.6 °C 16.9 °C 1019.2 hPa South 1.9 km/h 1.9 km/h 35% 0 mm 638.0 W/m2 OVC
14:36 34.9 °C 17.2 °C 1019.2 hPa South 1.9 km/h 1.9 km/h 35% 0 mm 629.0 W/m2 OVC
14:41 35.2 °C 17 °C 1019.2 hPa South 1.9 km/h   34% 0 mm 624.0 W/m2 OVC
14:46 35.6 °C 17.3 °C 1019.2 hPa Calm     34% 0 mm 615.0 W/m2 OVC
14:51 35.9 °C 17.1 °C 1019.2 hPa Calm     33% 0 mm 619.0 W/m2 OVC
14:56 36.2 °C 16.9 °C 1019.2 hPa Calm     32% 0 mm 334.0 W/m2 OVC
15:01 36.1 °C 16.8 °C 1018.8 hPa South 1.9 km/h 1.9 km/h 32% 0 mm 605.0 W/m2 OVC
15:06 35.8 °C 17 °C 1018.8 hPa Calm     33% 0 mm 598.0 W/m2 OVC
15:11 35.5 °C 17.2 °C 1018.8 hPa Calm     34% 0 mm 594.0 W/m2 OVC
15:21 34.8 °C 17.1 °C 1018.8 hPa Calm     35% 0 mm 577.0 W/m2 OVC
15:26 34.2 °C 17.4 °C 1018.5 hPa South 1.9 km/h 1.9 km/h 37% 0 mm 571.0 W/m2 OVC
15:31 33.7 °C 17 °C 1018.5 hPa South 1.6 km/h 1.6 km/h 37% 0 mm 568.0 W/m2 OVC
15:36 33.8 °C 17.5 °C 1018.5 hPa South 1.6 km/h 1.6 km/h 38% 0 mm 557.0 W/m2 OVC
15:41 33.9 °C 17.2 °C 1018.5 hPa Calm     37% 0 mm 545.0 W/m2 OVC
15:46 33.9 °C 17.2 °C 1018.5 hPa South 1.9 km/h   37% 0 mm 536.0 W/m2 OVC
15:51 33.9 °C 17.2 °C 1018.5 hPa South 1.9 km/h 1.9 km/h 37% 0 mm 524.0 W/m2 OVC
15:56 33.7 °C 17.4 °C 1018.5 hPa South 1.9 km/h   38% 0 mm 515.0 W/m2 OVC
16:01 34.3 °C 17.6 °C 1018.5 hPa Calm     37% 0 mm 503.0 W/m2 OVC
16:06 34.8 °C 17.9 °C 1018.5 hPa Calm     37% 0 mm 503.0 W/m2 OVC
16:11 35.4 °C 18.1 °C 1018.2 hPa Calm     36% 0 mm 489.0 W/m2 OVC
16:16 38 °C 18.4 °C 1018.5 hPa Calm     32% 0 mm 473.0 W/m2 OVC
16:21 38.4 °C 18.3 °C 1018.2 hPa South 1.9 km/h   31% 0 mm 462.0 W/m2 OVC
16:26 39.2 °C 17.9 °C 1018.2 hPa Calm     29% 0 mm 452.0 W/m2 OVC
16:31 39.2 °C 17.9 °C 1018.2 hPa Calm     29% 0 mm 438.0 W/m2 OVC
16:36 38.9 °C 17.7 °C 1018.2 hPa South 1.9 km/h 1.9 km/h 29% 0 mm 425.0 W/m2 OVC
16:41 38.2 °C 17.6 °C 1018.2 hPa Calm     30% 0 mm 411.0 W/m2 OVC
16:46 37.9 °C 17.9 °C 1018.2 hPa Calm     31% 0 mm 403.0 W/m2 OVC
16:51 38.4 °C 17.8 °C 1018.2 hPa Calm     30% 0 mm 388.0 W/m2 OVC
16:56 38.3 °C 18.2 °C 1018.2 hPa Calm     31% 0 mm 373.0 W/m2 OVC
17:01 38.2 °C 18.1 °C 1018.2 hPa South 1.9 km/h 1.9 km/h 31% 0 mm 360.0 W/m2 OVC
17:06 38.3 °C 18.7 °C 1018.2 hPa Calm     32% 0 mm 345.0 W/m2 OVC
17:11 38.9 °C 18.7 °C 1018.2 hPa South 1.9 km/h   31% 0 mm 332.0 W/m2 OVC
17:16 39.4 °C 18.6 °C 1018.2 hPa Calm     30% 0 mm 320.0 W/m2 OVC
17:21 39.8 °C 18.9 °C 1018.2 hPa Calm     30% 0 mm 323.0 W/m2 OVC
17:26 40.5 °C 19 °C 1018.2 hPa Calm     29% 0 mm 315.0 W/m2 OVC
17:31 37.3 °C 15.7 °C 1018.2 hPa Calm     28% 0 mm 299.0 W/m2 OVC
17:36 36.6 °C 15.1 °C 1018.2 hPa Calm     28% 0 mm 281.0 W/m2 OVC
17:41 35.9 °C 15.1 °C 1018.2 hPa Calm     29% 0 mm 260.0 W/m2 OVC
17:46 36.8 °C 16.3 °C 1017.8 hPa Calm     30% 0 mm 232.0 W/m2 OVC
17:51 37.1 °C 16.1 °C 1017.8 hPa Calm     29% 0 mm 216.0 W/m2 OVC
17:56 37.3 °C 16.3 °C 1018.2 hPa Calm     29% 0 mm 197.0 W/m2 OVC
18:01 36.9 °C 15.9 °C 1018.2 hPa Calm     29% 0 mm 176.0 W/m2 CLR
18:06 36.4 °C 16.1 °C 1018.2 hPa Calm     30% 0 mm 160.0 W/m2 CLR
18:11 36.3 °C 15.9 °C 1018.2 hPa Calm     30% 0 mm 144.0 W/m2 CLR
18:16 35.9 °C 16.1 °C 1018.2 hPa Calm     31% 0 mm 127.0 W/m2 CLR
18:21 35.8 °C 16 °C 1018.2 hPa Calm     31% 0 mm 107.0 W/m2 CLR
18:26 35.7 °C 16.4 °C 1018.2 hPa Calm     32% 0 mm 30.0 W/m2 CLR
18:31 35.8 °C 16.5 °C 1018.2 hPa Calm     32% 0 mm 21.0 W/m2 CLR
18:36 35.6 °C 16.3 °C 1018.2 hPa Calm     32% 0 mm 18.0 W/m2 CLR
18:41 35.2 °C 16.4 °C 1018.2 hPa Calm     33% 0 mm 16.0 W/m2 CLR
18:46 34.6 °C 16.4 °C 1018.2 hPa Calm     34% 0 mm 14.0 W/m2 CLR
18:51 34.1 °C 16.4 °C 1018.2 hPa Calm     35% 0 mm 11.0 W/m2 CLR
18:56 33.6 °C 16.4 °C 1018.2 hPa Calm     36% 0 mm 9.0 W/m2 CLR
19:01 33.1 °C 16 °C 1018.2 hPa Calm     36% 0 mm 5.0 W/m2 CLR
19:06 32.6 °C 16 °C 1018.2 hPa Calm     37% 0 mm 0.0 W/m2 CLR
19:11 32 °C 16.3 °C 1018.2 hPa Calm     39% 0 mm 0.0 W/m2 CLR
19:16 31.4 °C 15.8 °C 1018.2 hPa Calm     39% 0 mm 0.0 W/m2 CLR
19:21 31.1 °C 15.8 °C 1018.2 hPa Calm     40% 0 mm 0.0 W/m2 CLR
19:26 30.8 °C 15.7 °C 1018.2 hPa Calm     40% 0 mm 0.0 W/m2 CLR
19:31 30.6 °C 15.8 °C 1018.2 hPa Calm     41% 0 mm 0.0 W/m2 CLR
19:36 30.3 °C 15.6 °C 1018.2 hPa Calm     41% 0 mm 0.0 W/m2 CLR
19:41 29.9 °C 15.6 °C 1018.2 hPa Calm     42% 0 mm 0.0 W/m2 CLR
19:46 29.4 °C 15.5 °C 1018.2 hPa Calm     43% 0 mm 0.0 W/m2
19:51 29.3 °C 15.7 °C 1018.2 hPa Calm     44% 0 mm 0.0 W/m2
19:56 29.4 °C 15.8 °C 1018.2 hPa Calm     44% 0 mm 0.0 W/m2
20:01 29.6 °C 16.1 °C 1018.2 hPa Calm     44% 0 mm 0.0 W/m2
20:06 29.8 °C 16.2 °C 1018.2 hPa Calm     44% 0 mm 0.0 W/m2
20:11 29.9 °C 16 °C 1018.2 hPa Calm     43% 0 mm 0.0 W/m2
20:16 30 °C 16.4 °C 1018.2 hPa Calm     44% 0 mm 0.0 W/m2
20:21 30 °C 16.4 °C 1018.5 hPa Calm     44% 0 mm 0.0 W/m2
20:26 29.9 °C 16.3 °C 1018.5 hPa Calm     44% 0 mm 0.0 W/m2
20:31 29.9 °C 16.3 °C 1018.5 hPa Calm     44% 0 mm 0.0 W/m2
20:36 29.8 °C 16.2 °C 1018.5 hPa Calm     44% 0 mm 0.0 W/m2
20:41 29.7 °C 16.6 °C 1018.5 hPa Calm     45% 0 mm 0.0 W/m2
20:46 29.7 °C 16.5 °C 1018.5 hPa Calm     45% 0 mm 0.0 W/m2
20:49 29.7 °C 16.4 °C 1018.5 hPa Calm     45% 0 mm 0.0 W/m2
20:54 29.5 °C 16.3 °C 1018.5 hPa Calm     45% 0 mm 0.0 W/m2
20:59 29.2 °C 16.3 °C 1018.5 hPa Calm     46% 0 mm 0.0 W/m2
21:04 28.8 °C 16.3 °C 1018.5 hPa Calm     47% 0 mm 0.0 W/m2
21:09 28.4 °C 16.6 °C 1018.5 hPa Calm     49% 0 mm 0.0 W/m2
21:14 28 °C 16.3 °C 1018.5 hPa Calm     49% 0 mm 0.0 W/m2
21:19 27.6 °C 16.2 °C 1018.5 hPa Calm     50% 0 mm 0.0 W/m2
21:24 27.3 °C 16.2 °C 1018.5 hPa Calm     51% 0 mm 0.0 W/m2
21:29 26.9 °C 16.2 °C 1018.5 hPa Calm     52% 0 mm 0.0 W/m2
21:34 26.7 °C 16.3 °C 1018.5 hPa Calm     53% 0 mm 0.0 W/m2
21:44 26.2 °C 16.2 °C 1018.5 hPa Calm     54% 0 mm 0.0 W/m2
21:49 26.1 °C 16.3 °C 1018.5 hPa Calm     55% 0 mm 0.0 W/m2
21:54 25.9 °C 16.4 °C 1018.5 hPa Calm     56% 0 mm 0.0 W/m2
21:59 25.7 °C 16 °C 1018.5 hPa Calm     55% 0 mm 0.0 W/m2
22:04 25.6 °C 16.4 °C 1018.5 hPa Calm     57% 0 mm 0.0 W/m2
22:09 26 °C 16.5 °C 1018.5 hPa Calm     56% 0 mm 0.0 W/m2
22:14 26.4 °C 16.3 °C 1018.5 hPa South 1.9 km/h   54% 0 mm 0.0 W/m2
22:19 26.4 °C 15.8 °C 1018.5 hPa West 1.9 km/h 1.9 km/h 52% 0 mm 0.0 W/m2
22:21 26.4 °C 15.7 °C 1018.5 hPa NW 1.9 km/h 1.9 km/h 52% 0 mm 0.0 W/m2
22:26 26.2 °C 15.6 °C 1018.5 hPa Calm   0.2 km/h 52% 0 mm 0.0 W/m2
22:31 25.9 °C 15.3 °C 1018.5 hPa NW 1.9 km/h 1.9 km/h 52% 0 mm 0.0 W/m2
22:36 25.8 °C 15.4 °C 1018.5 hPa NW 1.9 km/h 1.9 km/h 53% 0 mm 0.0 W/m2
22:41 25.7 °C 15.3 °C 1018.5 hPa NNW 1.9 km/h   53% 0 mm 0.0 W/m2
22:46 25.3 °C 15.6 °C 1018.5 hPa NNW 3.7 km/h 3.7 km/h 55% 0 mm 0.0 W/m2
22:51 24.8 °C 15.4 °C 1018.5 hPa NNW 3.7 km/h 3.7 km/h 56% 0 mm 0.0 W/m2
22:56 24.4 °C 15.6 °C 1018.5 hPa NNW 1.9 km/h 1.9 km/h 58% 0 mm 0.0 W/m2
23:01 24.1 °C 15.6 °C 1018.5 hPa NNW 1.9 km/h 1.9 km/h 59% 0 mm 0.0 W/m2
23:06 23.9 °C 15.6 °C 1018.8 hPa NNW 1.9 km/h 1.9 km/h 60% 0 mm 0.0 W/m2
23:11 23.7 °C 15.7 °C 1018.8 hPa North 1.9 km/h 1.9 km/h 61% 0 mm 0.0 W/m2
23:18 23.4 °C 15.7 °C 1018.8 hPa NNW 1.9 km/h 1.9 km/h 62% 0 mm 0.0 W/m2
Historical Data from High Park Village Toronto since August 2007
Compliments of Weather Underground - 3.25 mb